Terminal Aerodrome Forecast
Issued by NWS

Current Version | Previous Version | Graphics & Text | Print | Product List | Glossary On
Versions: 1 2 3 4 5 6 7 8 9 10 11 12 13 14 15 16
000
FTUS41 KRNK 220533
TAFLWB
TAF
KLWB 220533Z 2206/2306 25004KT P6SM BKN250
     FM221900 25004KT P6SM BKN080
     FM230400 23006KT P6SM OVC015=

USA.gov is the U.S. government's official web portal to all federal, state and local government web resources and services.